.
WxDataArchive / Data Records for 2013-07-06
2013-07-05 July 2013 2013-07-07

Data Records for Saturday, 06 July 2013

Time	Temp	Chill	HIndex	Humid	Dewpt	 Wind 	HiWind	WindDir	Rain 	Barom 
-----	----	-----	------	-----	-----	------	------	-------	-----	----- 
00:00	71.1	71.1	71.1	86	66.7	0	0	---	0.00	30.083 
00:05	70.9	70.9	70.9	87	66.8	0	0	---	0.00	30.083 
00:10	70.9	70.9	70.9	87	66.8	0	0	---	0.00	30.083 
00:15	70.9	70.9	70.9	87	66.8	0	0	---	0.00	30.090 
00:20	70.9	70.9	70.9	87	66.8	0	0	---	0.00	30.090 
00:25	70.9	70.9	70.9	87	66.8	0	0	---	0.00	30.090 
00:30	70.9	70.9	70.9	87	66.8	0	1	270	0.00	30.089 
00:35	70.9	70.9	70.9	87	66.8	0	0	---	0.00	30.089 
00:40	70.9	70.9	70.9	87	66.8	0	0	---	0.00	30.089 
00:45	70.9	70.9	70.9	87	66.8	0	0	---	0.00	30.088 
00:50	70.9	70.9	70.9	87	66.8	0	0	---	0.00	30.088 
00:55	70.9	70.9	70.9	87	66.8	0	0	---	0.00	30.088 
01:00	70.9	70.9	70.9	87	66.8	0	0	---	0.00	30.088 
01:05	70.9	70.9	70.9	87	66.8	0	0	---	0.00	30.088 
01:10	71.1	71.1	71.1	87	67.0	0	0	---	0.00	30.088 
01:15	71.1	71.1	71.1	87	67.0	0	0	---	0.00	30.086 
01:20	71.1	71.1	71.1	87	67.0	0	0	---	0.00	30.086 
01:25	71.1	71.1	71.1	87	67.0	0	0	---	0.00	30.086 
01:30	71.1	71.1	71.1	87	67.0	0	0	---	0.00	30.085 
01:35	71.1	71.1	71.1	87	67.0	0	1	270	0.00	30.085 
01:40	71.1	71.1	71.1	87	67.0	0	0	---	0.00	30.085 
01:45	71.1	71.1	71.1	87	67.0	0	0	---	0.00	30.086 
01:50	71.1	71.1	71.1	87	67.0	0	0	---	0.00	30.086 
01:55	70.9	70.9	70.9	88	67.2	0	0	---	0.00	30.086 
02:00	70.9	70.9	70.9	88	67.2	0	0	---	0.00	30.085 
02:05	70.9	70.9	70.9	88	67.2	0	0	---	0.00	30.085 
02:10	70.8	70.8	70.8	88	67.1	0	0	---	0.00	30.085 
02:15	70.8	70.8	70.8	88	67.1	0	0	---	0.00	30.089 
02:20	70.8	70.8	70.8	88	67.1	0	0	---	0.00	30.089 
02:25	70.8	70.8	70.8	88	67.1	0	0	---	0.00	30.089 
02:30	70.8	70.8	70.8	88	67.1	0	0	---	0.00	30.088 
02:35	70.6	70.6	70.6	88	66.9	0	0	---	0.00	30.088 
02:40	70.6	70.6	70.6	88	66.9	0	1	270	0.00	30.088 
02:45	70.6	70.6	70.6	88	66.9	0	0	---	0.00	30.086 
02:50	70.6	70.6	70.6	89	67.2	0	0	---	0.00	30.086 
02:55	70.4	70.4	70.4	89	67.0	0	0	---	0.00	30.086 
03:00	70.4	70.4	70.4	89	67.0	0	0	---	0.00	30.088 
03:05	70.4	70.4	70.4	89	67.0	0	0	---	0.00	30.088 
03:10	70.3	70.3	70.3	89	66.9	0	0	---	0.00	30.088 
03:15	70.3	70.3	70.3	89	66.9	0	0	---	0.00	30.084 
03:20	70.1	70.1	70.1	89	66.7	0	0	---	0.00	30.084 
03:25	70.1	70.1	70.1	90	67.0	0	0	---	0.00	30.084 
03:30	69.9	69.9	69.9	90	66.8	0	0	---	0.00	30.075 
03:35	69.9	69.9	69.9	90	66.8	0	0	---	0.00	30.075 
03:40	69.8	69.8	69.8	90	66.7	0	0	---	0.00	30.075 
03:45	69.8	69.8	69.8	90	66.7	0	0	---	0.00	30.074 
03:50	69.8	69.8	69.8	90	66.7	0	0	---	0.00	30.074 
03:55	69.8	69.8	69.8	90	66.7	0	0	---	0.00	30.074 
04:00	69.6	69.6	69.6	91	66.8	0	0	---	0.00	30.073 
04:05	69.6	69.6	69.6	91	66.8	0	0	---	0.00	30.073 
04:10	69.4	69.4	69.4	91	66.7	0	0	---	0.00	30.073 
04:15	69.4	69.4	69.4	91	66.7	0	0	---	0.00	30.069 
04:20	69.3	69.3	69.3	91	66.6	0	0	---	0.00	30.069 
04:25	69.3	69.3	69.3	92	66.9	0	0	---	0.00	30.069 
04:30	69.4	69.4	69.4	92	67.0	0	0	---	0.00	30.071 
04:35	69.3	69.3	69.3	92	66.9	0	0	---	0.00	30.071 
04:40	69.3	69.3	69.3	92	66.9	0	0	---	0.00	30.071 
04:45	69.3	69.3	69.3	92	66.9	0	0	---	0.00	30.068 
04:50	69.3	69.3	69.3	92	66.9	0	0	---	0.00	30.068 
04:55	69.3	69.3	69.3	92	66.9	0	0	---	0.00	30.068 
05:00	69.3	69.3	69.3	92	66.9	0	0	---	0.00	30.065 
05:05	69.3	69.3	69.3	92	66.9	0	0	---	0.00	30.065 
05:10	69.1	69.1	69.1	92	66.7	0	0	---	0.00	30.065 
05:15	68.9	68.9	68.9	92	66.5	0	0	---	0.00	30.066 
05:20	68.9	68.9	68.9	92	66.5	0	0	---	0.00	30.066 
05:25	68.8	68.8	68.8	92	66.4	0	0	---	0.00	30.066 
05:30	68.6	68.6	68.6	92	66.2	0	0	---	0.00	30.065 
05:35	68.6	68.6	68.6	92	66.2	0	0	---	0.00	30.065 
05:40	68.4	68.4	68.4	93	66.3	0	0	---	0.00	30.065 
05:45	68.4	68.4	68.4	93	66.3	0	0	---	0.00	30.073 
05:50	68.4	68.4	68.4	93	66.3	0	0	---	0.00	30.073 
05:55	68.4	68.4	68.4	93	66.3	0	0	---	0.00	30.073 
06:00	68.3	68.3	68.3	93	66.2	0	0	---	0.00	30.074 
06:05	68.3	68.3	68.3	93	66.2	0	0	---	0.00	30.074 
06:10	68.1	68.1	68.1	93	66.0	0	0	---	0.00	30.074 
06:15	68.1	68.1	68.1	94	66.3	0	0	---	0.00	30.073 
06:20	68.1	68.1	68.1	94	66.3	0	0	---	0.00	30.073 
06:25	68.1	68.1	68.1	94	66.3	0	0	---	0.00	30.073 
06:30	67.9	67.9	67.9	94	66.1	0	0	---	0.00	30.073 
06:35	67.9	67.9	67.9	94	66.1	0	0	---	0.00	30.073 
06:40	67.8	67.8	67.8	94	66.0	0	0	---	0.00	30.073 
06:45	67.8	67.8	67.8	94	66.0	0	0	---	0.00	30.073 
06:50	67.9	67.9	67.9	94	66.1	0	0	---	0.00	30.073 
06:55	68.1	68.1	68.1	94	66.3	0	0	---	0.00	30.073 
07:00	68.1	68.1	68.1	95	66.6	0	0	---	0.00	30.075 
07:05	68.3	68.3	68.3	95	66.8	0	0	---	0.00	30.075 
07:10	68.4	68.4	68.4	95	66.9	0	0	---	0.00	30.075 
07:15	68.6	68.6	68.6	95	67.1	0	0	---	0.00	30.077 
07:20	68.9	68.9	68.9	95	67.4	0	0	---	0.00	30.077 
07:25	69.1	69.1	69.1	95	67.6	0	0	---	0.00	30.077 
07:30	69.3	69.3	69.3	95	67.8	0	0	---	0.00	30.078 
07:35	69.4	69.4	69.4	95	67.9	0	0	---	0.00	30.078 
07:40	69.6	69.6	69.6	95	68.1	0	0	---	0.00	30.078 
07:45	69.8	69.8	69.8	94	68.0	0	1	270	0.00	30.083 
07:50	69.9	69.9	69.9	94	68.1	0	1	270	0.00	30.083 
07:55	70.1	70.1	70.1	94	68.3	0	1	270	0.00	30.083 
08:00	70.3	70.3	70.3	94	68.5	0	1	270	0.00	30.084 
08:05	70.6	70.6	70.6	94	68.8	0	0	---	0.00	30.084 
08:10	70.8	70.8	70.8	93	68.7	0	2	270	0.00	30.084 
08:15	70.9	70.9	70.9	93	68.8	0	2	270	0.00	30.089 
08:20	71.1	71.1	71.1	92	68.7	0	1	270	0.00	30.089 
08:25	71.1	71.1	71.1	92	68.7	0	1	270	0.00	30.089 
08:30	71.3	71.3	71.3	92	68.8	0	2	270	0.00	30.089 
08:35	71.5	71.5	71.5	92	69.0	0	1	270	0.00	30.089 
08:40	71.8	71.8	71.8	92	69.3	0	1	270	0.00	30.089 
08:45	72.0	72.0	72.0	91	69.2	0	1	270	0.00	30.089 
08:50	72.1	72.1	72.1	91	69.3	0	1	270	0.00	30.089 
08:55	72.3	72.3	72.3	90	69.2	0	0	---	0.00	30.089 
09:00	72.3	72.3	72.3	90	69.2	0	0	---	0.00	30.088 
09:05	72.5	72.5	72.5	90	69.4	0	0	---	0.00	30.088 
09:10	72.5	72.5	72.5	89	69.1	0	1	270	0.00	30.088 
09:15	72.5	72.5	72.5	89	69.1	0	1	270	0.00	30.087 
09:20	72.5	72.5	72.5	89	69.1	0	1	270	0.00	30.087 
09:25	72.5	72.5	72.5	89	69.1	0	1	270	0.00	30.087 
09:30	72.5	72.5	72.5	89	69.1	0	1	270	0.00	30.087 
09:35	72.5	72.5	72.5	89	69.1	0	1	270	0.03	30.087 
09:40	72.5	72.5	72.5	90	69.4	0	2	270	0.02	30.087 
09:45	72.3	72.3	72.3	90	69.2	0	1	270	0.03	30.087 
09:50	72.1	72.1	72.1	91	69.3	0	1	270	0.01	30.087 
09:55	72.1	72.1	72.1	92	69.6	0	1	270	0.00	30.087 
10:00	72.1	72.1	72.1	92	69.6	0	0	---	0.00	30.087 
10:05	72.0	72.0	72.0	92	69.5	0	0	---	0.00	30.087 
10:10	71.8	71.8	71.8	92	69.3	0	0	---	0.00	30.087 
10:15	71.8	71.8	71.8	93	69.7	0	1	270	0.00	30.085 
10:20	72.0	72.0	72.0	93	69.9	0	3	270	0.00	30.085 
10:25	72.0	72.0	72.0	93	69.9	1	3	270	0.00	30.085 
10:30	72.0	72.0	72.0	93	69.9	0	1	270	0.00	30.084 
10:35	72.1	72.1	72.1	93	70.0	0	1	270	0.00	30.084 
10:40	72.1	72.1	72.1	93	70.0	0	1	270	0.01	30.084 
10:45	72.1	72.1	72.1	94	70.3	0	2	270	0.00	30.084 
10:50	72.1	72.1	72.1	94	70.3	0	2	270	0.00	30.084 
10:55	72.3	72.3	72.3	94	70.5	0	1	270	0.00	30.084 
11:00	72.3	72.3	72.3	94	70.5	0	1	270	0.00	30.082 
11:05	72.3	72.3	72.3	94	70.5	0	1	270	0.00	30.082 
11:10	72.5	72.5	72.5	94	70.7	0	1	270	0.00	30.082 
11:15	72.5	72.5	72.5	94	70.7	0	1	270	0.00	30.082 
11:20	72.7	72.7	72.7	94	70.9	0	1	270	0.00	30.082 
11:25	72.7	72.7	72.7	93	70.6	0	1	270	0.00	30.082 
11:30	72.7	72.7	72.7	94	70.9	0	2	270	0.00	30.082 
11:35	72.7	72.7	72.7	93	70.6	0	1	270	0.00	30.082 
11:40	72.8	72.8	72.8	93	70.7	0	1	270	0.00	30.082 
11:45	73.0	73.0	73.0	92	70.5	0	1	270	0.00	30.078 
11:50	73.0	73.0	73.0	92	70.5	0	1	270	0.00	30.078 
11:55	73.3	73.3	73.3	91	70.5	0	2	270	0.00	30.078 
12:00	73.7	73.7	73.7	91	70.9	0	1	270	0.00	30.078 
12:05	73.9	73.9	73.9	90	70.8	0	2	270	0.00	30.078 
12:10	74.2	74.2	74.2	89	70.7	0	1	270	0.00	30.078 
12:15	74.6	74.6	74.6	88	70.8	0	1	270	0.00	30.076 
12:20	74.6	74.6	74.6	86	70.1	0	2	270	0.00	30.076 
12:25	74.7	74.7	74.7	85	69.9	0	1	270	0.00	30.076 
12:30	75.3	75.3	75.5	84	70.1	0	1	270	0.00	30.069 
12:35	75.4	75.4	75.9	82	69.5	0	1	270	0.00	30.069 
12:40	75.3	75.3	75.9	81	69.1	0	1	270	0.00	30.069 
12:45	75.4	75.4	76.0	81	69.1	0	1	270	0.00	30.069 
12:50	75.6	75.6	76.3	81	69.3	0	0	---	0.00	30.069 
12:55	75.8	75.8	76.6	81	69.5	0	0	---	0.00	30.069 
13:00	75.6	75.6	76.4	80	69.0	0	1	270	0.00	30.063 
13:05	75.6	75.6	76.4	80	69.0	0	0	---	0.00	30.063 
13:10	75.3	75.3	75.9	81	69.1	0	1	270	0.06	30.063 
13:15	74.9	74.9	74.9	83	69.4	0	0	---	0.00	30.060 
13:20	74.6	74.6	74.6	84	69.4	0	0	---	0.00	30.060 
13:25	74.7	74.7	74.7	85	69.9	0	1	270	0.00	30.060 
13:30	74.7	74.7	74.7	86	70.2	0	1	270	0.00	30.056 
13:35	75.1	75.1	74.7	87	71.0	0	1	270	0.00	30.056 
13:40	75.4	75.4	75.5	85	70.6	0	1	270	0.00	30.056 
13:45	75.4	75.4	75.7	84	70.2	0	3	270	0.00	30.053 
13:50	75.8	75.8	76.5	82	69.9	0	1	270	0.00	30.053 
13:55	76.1	76.1	77.1	80	69.5	0	2	270	0.00	30.053 
14:00	76.3	76.3	77.5	79	69.3	0	1	270	0.00	30.052 
14:05	76.1	76.1	77.4	77	68.3	0	1	270	0.00	30.052 
14:10	76.3	76.3	77.6	77	68.5	0	1	270	0.00	30.052 
14:15	76.1	76.1	77.4	77	68.3	0	2	270	0.00	30.044 
14:20	76.0	76.0	77.3	76	67.9	0	0	---	0.00	30.044 
14:25	76.1	76.1	77.4	77	68.3	0	1	270	0.00	30.044 
14:30	76.0	76.0	77.4	75	67.5	0	1	270	0.00	30.042 
14:35	76.0	76.0	77.3	76	67.9	0	1	270	0.00	30.042 
14:40	76.0	76.0	77.2	77	68.3	0	1	270	0.00	30.042 
14:45	76.1	76.1	77.5	75	67.6	0	1	270	0.00	30.035 
14:50	76.5	76.5	78.1	73	67.2	0	1	270	0.00	30.035 
14:55	77.0	77.0	78.7	73	67.7	0	1	270	0.00	30.035 
15:00	77.4	77.4	79.3	74	68.4	0	1	270	0.00	30.031 
15:05	77.4	77.4	79.3	73	68.0	0	1	270	0.00	30.031 
15:10	77.2	77.2	79.0	73	67.9	0	1	270	0.00	30.031 
15:15	77.0	77.0	78.7	73	67.7	0	1	270	0.00	30.028 
15:20	77.0	77.0	78.7	72	67.3	0	1	270	0.00	30.028 
15:25	77.4	77.4	79.3	73	68.0	0	1	270	0.00	30.028 
15:30	77.9	77.9	80.0	73	68.5	0	1	270	0.00	30.025 
15:35	78.1	78.1	80.1	69	67.1	0	2	270	0.00	30.025 
15:40	78.3	78.3	80.4	69	67.3	0	2	270	0.00	30.025 
15:45	78.6	78.6	80.7	68	67.1	0	2	270	0.00	30.024 
15:50	78.8	78.8	81.0	68	67.3	0	1	270	0.00	30.024 
15:55	79.0	79.0	81.3	68	67.5	0	1	270	0.00	30.024 
16:00	78.8	78.8	81.0	68	67.3	0	1	270	0.00	30.023 
16:05	78.8	78.8	81.1	70	68.2	0	0	---	0.00	30.023 
16:10	78.6	78.6	80.9	71	68.4	0	1	270	0.00	30.023 
16:15	78.3	78.3	80.5	71	68.1	0	1	270	0.00	30.023 
16:20	78.1	78.1	80.2	70	67.5	1	2	270	0.00	30.023 
16:25	77.9	77.9	79.9	70	67.3	0	1	270	0.00	30.023 
16:30	77.9	77.9	79.9	70	67.3	0	2	270	0.00	30.021 
16:35	77.9	77.9	79.9	72	68.1	0	2	270	0.00	30.021 
16:40	77.6	77.6	79.5	73	68.2	1	3	270	0.00	30.021 
16:45	77.2	77.2	79.0	74	68.3	0	1	270	0.00	30.015 
16:50	76.8	76.8	78.4	75	68.3	0	1	270	0.00	30.015 
16:55	76.7	76.7	78.2	76	68.5	0	1	270	0.00	30.015 
17:00	76.5	76.5	78.0	76	68.4	0	2	270	0.00	30.012 
17:05	76.1	76.1	77.3	78	68.7	1	3	112	0.00	30.012 
17:10	75.8	75.8	76.9	78	68.4	0	2	112	0.00	30.012 
17:15	75.6	75.6	76.4	80	69.0	0	0	---	0.00	30.007 
17:20	75.4	75.4	76.2	79	68.4	0	1	112	0.00	30.007 
17:25	75.3	75.3	76.0	80	68.7	0	1	112	0.00	30.007 
17:30	75.4	75.4	76.0	81	69.1	0	0	---	0.00	29.998 
17:35	75.4	75.4	76.2	79	68.4	0	1	112	0.00	29.998 
17:40	75.4	75.4	76.1	80	68.8	0	1	112	0.00	29.998 
17:45	75.6	75.6	76.5	79	68.6	0	0	---	0.00	30.001 
17:50	76.0	76.0	77.0	80	69.4	0	1	112	0.00	30.001 
17:55	76.0	76.0	77.1	79	69.0	0	1	112	0.00	30.001 
18:00	76.1	76.1	77.3	78	68.7	0	0	---	0.00	30.000 
18:05	76.1	76.1	77.4	77	68.3	0	1	112	0.00	30.000 
18:10	76.3	76.3	77.6	77	68.5	0	0	---	0.00	30.000 
18:15	76.3	76.3	77.6	78	68.9	0	0	---	0.00	30.001 
18:20	76.1	76.1	77.4	77	68.3	0	0	---	0.00	30.001 
18:25	76.1	76.1	77.4	77	68.3	0	0	---	0.00	30.001 
18:30	76.0	76.0	77.2	78	68.6	0	0	---	0.00	30.000 
18:35	76.0	76.0	77.1	79	69.0	0	0	---	0.00	30.000 
18:40	75.8	75.8	76.8	79	68.8	0	0	---	0.00	30.000 
18:45	75.8	75.8	76.7	80	69.2	0	0	---	0.00	29.994 
18:50	75.6	75.6	76.5	79	68.6	0	0	---	0.00	29.994 
18:55	75.6	75.6	76.4	80	69.0	0	0	---	0.00	29.994 
19:00	75.6	75.6	76.3	81	69.3	0	0	---	0.00	29.990 
19:05	75.4	75.4	76.0	81	69.1	0	0	---	0.00	29.990 
19:10	75.4	75.4	76.1	80	68.8	1	3	45	0.00	29.990 
19:15	75.3	75.3	76.1	79	68.3	2	3	315	0.00	29.989 
19:20	75.3	75.3	76.1	79	68.3	1	5	270	0.00	29.989 
19:25	75.1	75.1	75.7	80	68.5	1	3	315	0.00	29.989 
19:30	74.6	74.6	74.6	78	67.3	2	4	270	0.00	29.994 
19:35	74.2	74.2	74.2	78	66.9	1	2	270	0.00	29.994 
19:40	74.0	74.0	74.0	79	67.1	0	1	270	0.00	29.994 
19:45	73.9	73.9	73.9	79	67.0	1	2	270	0.00	29.999 
19:50	73.7	73.7	73.7	79	66.8	1	2	270	0.00	29.999 
19:55	73.5	73.5	73.5	80	66.9	0	2	270	0.00	29.999 
20:00	73.5	73.5	73.5	81	67.3	0	1	270	0.00	30.003 
20:05	73.5	73.5	73.5	81	67.3	0	1	270	0.00	30.003 
20:10	73.3	73.3	73.3	81	67.1	0	1	270	0.00	30.003 
20:15	73.2	73.2	73.2	82	67.4	0	1	270	0.00	30.010 
20:20	73.2	73.2	73.2	82	67.4	0	1	270	0.00	30.010 
20:25	73.2	73.2	73.2	83	67.7	0	0	---	0.00	30.010 
20:30	73.0	73.0	73.0	83	67.5	0	1	270	0.00	30.013 
20:35	73.0	73.0	73.0	83	67.5	0	1	270	0.00	30.013 
20:40	72.8	72.8	72.8	83	67.3	0	1	270	0.00	30.013 
20:45	72.8	72.8	72.8	83	67.3	0	1	270	0.00	30.002 
20:50	72.7	72.7	72.7	83	67.2	0	1	270	0.00	30.002 
20:55	72.7	72.7	72.7	84	67.6	0	0	---	0.00	30.002 
21:00	72.5	72.5	72.5	83	67.0	0	1	270	0.00	30.007 
21:05	72.3	72.3	72.3	83	66.8	0	1	270	0.00	30.007 
21:10	72.3	72.3	72.3	83	66.8	0	0	---	0.00	30.007 
21:15	72.3	72.3	72.3	84	67.2	0	0	---	0.00	30.008 
21:20	72.1	72.1	72.1	84	67.0	0	0	---	0.00	30.008 
21:25	72.1	72.1	72.1	84	67.0	0	0	---	0.00	30.008 
21:30	72.0	72.0	72.0	85	67.2	0	0	---	0.00	30.014 
21:35	72.0	72.0	72.0	85	67.2	0	0	---	0.00	30.014 
21:40	71.8	71.8	71.8	85	67.0	0	0	---	0.00	30.014 
21:45	71.8	71.8	71.8	86	67.4	0	0	---	0.00	30.019 
21:50	71.8	71.8	71.8	86	67.4	0	0	---	0.00	30.019 
21:55	71.6	71.6	71.6	86	67.2	0	0	---	0.00	30.019 
22:00	71.6	71.6	71.6	87	67.5	0	0	---	0.00	30.024 
22:05	71.6	71.6	71.6	87	67.5	0	0	---	0.00	30.024 
22:10	71.6	71.6	71.6	87	67.5	0	0	---	0.00	30.024 
22:15	71.6	71.6	71.6	87	67.5	0	0	---	0.00	30.022 
22:20	71.6	71.6	71.6	87	67.5	0	1	270	0.00	30.022 
22:25	71.6	71.6	71.6	87	67.5	0	1	270	0.00	30.022 
22:30	71.6	71.6	71.6	87	67.5	0	0	---	0.00	30.031 
22:35	71.6	71.6	71.6	88	67.8	0	0	---	0.00	30.031 
22:40	71.6	71.6	71.6	88	67.8	0	0	---	0.00	30.031 
22:45	71.6	71.6	71.6	88	67.8	0	0	---	0.00	30.039 
22:50	71.6	71.6	71.6	89	68.2	0	1	270	0.00	30.039 
22:55	71.6	71.6	71.6	89	68.2	0	1	270	0.00	30.039 
23:00	71.6	71.6	71.6	89	68.2	0	3	292	0.05	30.045 
23:05	71.5	71.5	71.5	90	68.4	0	1	292	0.05	30.045 
23:10	71.1	71.1	71.1	90	68.0	0	0	---	0.02	30.045 
23:15	70.9	70.9	70.9	91	68.1	0	1	292	0.03	30.044 
23:20	70.8	70.8	70.8	91	68.0	0	0	---	0.00	30.044 
23:25	70.6	70.6	70.6	92	68.2	0	0	---	0.00	30.044 
23:30	70.6	70.6	70.6	92	68.2	0	0	---	0.00	30.041 
23:35	70.4	70.4	70.4	92	68.0	0	0	---	0.00	30.041 
23:40	70.4	70.4	70.4	92	68.0	0	0	---	0.00	30.041 
23:45	70.4	70.4	70.4	93	68.3	0	0	---	0.00	30.044 
23:50	70.4	70.4	70.4	93	68.3	0	1	292	0.00	30.044 
23:55	70.4	70.4	70.4	93	68.3	0	1	292	0.00	30.044 

CoCoRaHS
IN-AL-39
A2 Web Hosting
Creative Commons License
GoDaddy
search engine by freefind advanced

loaded 2018-11-17 18:11:28 • last modified 2010-11-18 10:43:29
Privacy PolicyDisclaimer
• wx.awcolley.com is powered by PmWiki v.2002016 •
• all content (unless otherwise noted) © 2018 A W Colley